createdAt,value
2023-01-07T00:04:26.251Z,11.00
2023-01-07T00:09:27.937Z,14.00
2023-01-07T00:14:29.349Z,22.30
2023-01-07T00:19:30.627Z,28.00
2023-01-07T00:24:31.922Z,26.80
2023-01-07T00:29:33.151Z,19.40
2023-01-07T00:34:34.443Z,27.70
2023-01-07T00:39:35.720Z,18.00
2023-01-07T00:44:37.263Z,21.10
2023-01-07T00:49:38.844Z,29.20
2023-01-07T00:54:40.111Z,28.80
2023-01-07T00:59:41.359Z,28.30
2023-01-07T01:04:42.755Z,20.40
2023-01-07T01:09:44.123Z,24.70
2023-01-07T01:14:45.457Z,24.00
2023-01-07T01:19:46.753Z,23.60
2023-01-07T01:24:49.351Z,42.50
2023-01-07T01:29:50.586Z,45.10
2023-01-07T01:34:52.008Z,36.90
2023-01-07T01:39:53.316Z,27.20
2023-01-07T01:45:05.579Z,29.10
2023-01-07T01:50:06.879Z,28.00
2023-01-07T01:55:11.189Z,33.60
2023-01-07T02:00:15.702Z,35.90
2023-01-07T02:05:17.748Z,36.10
2023-01-07T02:10:21.668Z,31.10
2023-01-07T02:15:45.608Z,22.50
2023-01-07T02:21:05.691Z,24.50
2023-01-07T02:26:28.799Z,26.10
2023-01-07T02:32:07.909Z,33.90
2023-01-07T02:37:37.115Z,36.10
2023-01-07T02:42:47.427Z,37.80
2023-01-07T02:47:59.270Z,34.90
2023-01-07T02:53:00.757Z,31.30
2023-01-07T02:58:23.903Z,27.30
2023-01-07T03:03:43.538Z,42.50
2023-01-07T03:09:09.836Z,36.90
2023-01-07T03:14:17.097Z,31.70
2023-01-07T03:19:24.734Z,30.40
2023-01-07T03:24:28.055Z,19.50
2023-01-07T03:29:31.569Z,28.50
2023-01-07T03:34:34.510Z,36.00
2023-01-07T03:39:39.035Z,30.30
2023-01-07T03:44:40.698Z,26.60
2023-01-07T03:49:41.979Z,28.80
2023-01-07T03:54:43.316Z,30.40
2023-01-07T03:59:44.568Z,25.80
2023-01-07T04:04:46.298Z,39.00
2023-01-07T04:09:49.556Z,33.30
2023-01-07T04:14:50.798Z,28.60
2023-01-07T04:19:52.315Z,26.30
2023-01-07T04:24:53.800Z,22.80
2023-01-07T04:29:55.041Z,26.10
2023-01-07T04:34:56.364Z,31.70
2023-01-07T04:39:57.709Z,28.10
2023-01-07T04:44:59.014Z,23.90
2023-01-07T04:50:00.324Z,26.20
2023-01-07T04:55:02.187Z,27.60
2023-01-07T05:00:05.239Z,28.20
2023-01-07T05:05:06.839Z,41.80
2023-01-07T05:10:08.671Z,28.70
2023-01-07T05:15:10.374Z,22.60
2023-01-07T05:20:12.964Z,27.70
2023-01-07T05:25:14.306Z,26.40
2023-01-07T05:30:15.667Z,34.90
2023-01-07T05:35:18.450Z,37.20
2023-01-07T05:40:19.776Z,29.20
2023-01-07T05:45:22.515Z,28.10
2023-01-07T05:50:24.031Z,22.90
2023-01-07T05:55:25.361Z,27.40
2023-01-07T06:00:26.741Z,42.40
2023-01-07T06:05:28.068Z,34.60
2023-01-07T06:10:29.350Z,28.00
2023-01-07T06:15:31.372Z,27.20
2023-01-07T06:20:35.547Z,32.70
2023-01-07T06:25:36.830Z,34.20
2023-01-07T06:30:38.096Z,40.60
2023-01-07T06:35:39.987Z,42.60
2023-01-07T06:40:41.224Z,36.10
2023-01-07T06:45:42.521Z,42.70
2023-01-07T06:50:44.580Z,41.90
2023-01-07T06:55:50.374Z,40.40
2023-01-07T07:00:51.673Z,34.80
2023-01-07T07:05:53.018Z,35.00
2023-01-07T07:10:54.346Z,37.60
2023-01-07T07:15:56.007Z,33.10
2023-01-07T07:20:57.936Z,31.50
2023-01-07T07:25:59.262Z,34.00
2023-01-07T07:31:00.633Z,28.80
2023-01-07T07:36:03.723Z,35.10
2023-01-07T07:41:05.087Z,26.20
2023-01-07T07:46:06.413Z,29.80
2023-01-07T07:51:07.806Z,29.00
2023-01-07T07:56:09.817Z,28.50
2023-01-07T08:01:11.206Z,26.70
2023-01-07T08:06:13.401Z,27.10
2023-01-07T08:11:15.048Z,26.30
2023-01-07T08:16:17.014Z,25.60
2023-01-07T08:21:18.531Z,19.80
2023-01-07T08:26:20.545Z,26.40
2023-01-07T08:31:21.915Z,25.00
2023-01-07T08:36:23.828Z,26.80
2023-01-07T08:41:25.925Z,23.30
2023-01-07T08:46:27.809Z,26.70
2023-01-07T08:51:29.226Z,29.00
2023-01-07T08:56:32.681Z,28.30
2023-01-07T09:01:34.067Z,27.60
2023-01-07T09:06:35.665Z,29.90
2023-01-07T09:11:37.305Z,30.50
2023-01-07T09:16:38.571Z,23.50
2023-01-07T09:21:40.373Z,23.70
2023-01-07T09:26:43.010Z,29.00
2023-01-07T09:31:44.922Z,23.30
2023-01-07T09:36:46.523Z,23.40
2023-01-07T09:42:26.185Z,20.00
2023-01-07T09:47:29.490Z,24.40
2023-01-07T09:52:37.913Z,23.70
2023-01-07T09:57:39.734Z,24.50
2023-01-07T10:03:18.711Z,25.50
2023-01-07T10:08:36.567Z,24.70
2023-01-07T10:14:15.507Z,21.60
2023-01-07T10:19:31.118Z,22.90
2023-01-07T10:24:40.666Z,28.10
2023-01-07T10:29:53.525Z,28.30
2023-01-07T10:34:58.248Z,22.60
2023-01-07T10:40:07.130Z,22.90
2023-01-07T10:45:46.016Z,27.00
2023-01-07T10:51:04.109Z,27.40
2023-01-07T10:56:24.480Z,30.90
2023-01-07T11:01:29.143Z,25.90
2023-01-07T11:06:49.617Z,22.80
2023-01-07T11:11:51.603Z,30.10
2023-01-07T11:17:30.145Z,20.80
2023-01-07T11:22:36.810Z,24.90
2023-01-07T11:27:44.886Z,33.10
2023-01-07T11:33:04.026Z,21.50
2023-01-07T11:38:29.501Z,22.50
2023-01-07T11:43:37.581Z,24.90
2023-01-07T11:48:49.142Z,23.20
2023-01-07T11:53:56.872Z,17.40
2023-01-07T11:59:18.760Z,23.10
2023-01-07T12:04:30.610Z,25.20
2023-01-07T12:09:31.853Z,22.90
2023-01-07T12:14:37.752Z,18.80
2023-01-07T12:19:41.888Z,25.00
2023-01-07T12:25:20.825Z,20.30
2023-01-07T12:30:44.023Z,16.70
2023-01-07T12:35:46.585Z,21.70
2023-01-07T12:40:51.209Z,16.70
2023-01-07T12:46:02.070Z,22.90
2023-01-07T12:51:36.359Z,20.90
2023-01-07T12:56:44.829Z,24.10
2023-01-07T13:02:06.833Z,24.10
2023-01-07T13:07:16.357Z,18.80
2023-01-07T13:12:48.753Z,19.00
2023-01-07T13:17:52.923Z,21.10
2023-01-07T13:22:55.935Z,17.30
2023-01-07T13:28:21.959Z,20.00
2023-01-07T13:33:30.945Z,21.70
2023-01-07T13:38:59.737Z,23.60
2023-01-07T13:44:38.731Z,18.80
2023-01-07T13:49:56.648Z,20.20
2023-01-07T13:55:23.508Z,20.50
2023-01-07T14:00:47.397Z,17.70
2023-01-07T14:05:49.692Z,41.50
2023-01-07T14:10:53.524Z,22.70
2023-01-07T14:16:00.745Z,20.10
2023-01-07T14:21:17.307Z,18.50
2023-01-07T14:26:40.625Z,18.80
2023-01-07T14:31:42.412Z,15.40
2023-01-07T14:37:07.740Z,14.90
2023-01-07T14:42:46.988Z,17.80
2023-01-07T14:47:48.244Z,17.40
2023-01-07T14:53:16.917Z,19.30
2023-01-07T14:58:56.565Z,31.80
2023-01-07T15:04:06.199Z,18.90
2023-01-07T15:09:34.745Z,16.90
2023-01-07T15:15:19.624Z,21.50
2023-01-07T15:20:23.816Z,26.40
2023-01-07T15:26:02.895Z,35.70
2023-01-07T15:31:04.552Z,30.00
2023-01-07T15:36:10.749Z,28.50
2023-01-07T15:41:35.667Z,25.80
2023-01-07T15:46:40.089Z,33.10
2023-01-07T15:51:44.056Z,53.50
2023-01-07T15:56:45.520Z,47.10
2023-01-07T16:01:50.007Z,40.40
2023-01-07T16:06:57.681Z,45.10
2023-01-07T16:11:58.948Z,49.40
2023-01-07T16:17:11.433Z,42.50
2023-01-07T16:22:19.124Z,40.20
2023-01-07T16:27:27.805Z,39.00
2023-01-07T16:32:29.390Z,37.40
2023-01-07T16:37:33.206Z,41.30
2023-01-07T16:42:34.610Z,31.90
2023-01-07T16:47:35.940Z,29.00
2023-01-07T16:52:54.434Z,53.00
2023-01-07T16:57:55.821Z,73.20
2023-01-07T17:02:59.900Z,70.80
2023-01-07T17:08:06.000Z,53.60
2023-01-07T17:13:13.410Z,47.70
2023-01-07T17:18:14.605Z,39.50
2023-01-07T17:23:40.480Z,30.70
2023-01-07T17:28:52.123Z,59.30
2023-01-07T17:33:54.766Z,88.50
2023-01-07T17:38:56.002Z,65.70
2023-01-07T17:43:58.242Z,39.10
2023-01-07T17:49:01.684Z,34.50
2023-01-07T17:54:05.874Z,29.90
2023-01-07T17:59:13.889Z,28.00
2023-01-07T18:04:16.880Z,30.60
2023-01-07T18:09:18.135Z,34.50
2023-01-07T18:14:19.777Z,33.90
2023-01-07T18:19:21.025Z,35.40
2023-01-07T18:24:22.456Z,40.20
2023-01-07T18:29:23.844Z,38.50
2023-01-07T18:34:25.353Z,37.30
2023-01-07T18:39:26.758Z,38.60
2023-01-07T18:44:28.618Z,37.60
2023-01-07T18:49:29.959Z,35.70
2023-01-07T18:54:32.708Z,36.20
2023-01-07T18:59:34.468Z,40.20
2023-01-07T19:04:38.981Z,32.00
2023-01-07T19:09:40.291Z,32.00
2023-01-07T19:14:41.712Z,39.00
2023-01-07T19:19:48.243Z,39.10
2023-01-07T19:24:50.268Z,36.20
2023-01-07T19:29:51.932Z,36.10
2023-01-07T19:34:53.177Z,40.20
2023-01-07T19:39:54.555Z,32.40
2023-01-07T19:44:55.901Z,30.10
2023-01-07T19:49:57.305Z,34.80
2023-01-07T19:54:58.597Z,28.90
2023-01-07T20:00:00.148Z,47.10
2023-01-07T20:05:01.588Z,39.50
2023-01-07T20:10:03.294Z,42.80
2023-01-07T20:15:05.079Z,46.10
2023-01-07T20:20:08.300Z,41.50
2023-01-07T20:25:10.615Z,39.10
2023-01-07T20:30:12.847Z,39.80
2023-01-07T20:35:14.426Z,37.00
2023-01-07T20:40:15.935Z,37.50
2023-01-07T20:45:17.348Z,46.40
2023-01-07T20:50:18.930Z,32.90
2023-01-07T20:55:20.207Z,39.00
2023-01-07T21:00:22.265Z,37.60
2023-01-07T21:05:23.833Z,35.10
2023-01-07T21:10:25.782Z,44.40
2023-01-07T21:15:27.035Z,38.50
2023-01-07T21:20:28.409Z,33.70
2023-01-07T21:25:29.664Z,37.90
2023-01-07T21:30:31.043Z,33.40
2023-01-07T21:35:32.633Z,37.90
2023-01-07T21:40:34.483Z,40.40
2023-01-07T21:45:36.428Z,40.10
2023-01-07T21:50:38.160Z,35.50
2023-01-07T21:55:39.392Z,37.60
2023-01-07T22:00:40.832Z,38.90
2023-01-07T22:05:42.165Z,41.20
2023-01-07T22:10:47.464Z,41.10
2023-01-07T22:15:49.055Z,38.00
2023-01-07T22:20:54.889Z,32.90
2023-01-07T22:26:02.309Z,36.20
2023-01-07T22:31:12.444Z,40.70
2023-01-07T22:36:36.277Z,33.20
2023-01-07T22:41:38.040Z,37.90
2023-01-07T22:46:44.214Z,36.20
2023-01-07T22:51:48.234Z,33.60
2023-01-07T22:56:49.997Z,38.90
2023-01-07T23:01:51.466Z,35.10
2023-01-07T23:06:52.987Z,33.30
2023-01-07T23:11:58.793Z,40.90
2023-01-07T23:17:00.179Z,41.60
2023-01-07T23:22:01.429Z,41.40
2023-01-07T23:27:02.738Z,39.00
2023-01-07T23:32:05.010Z,38.70
2023-01-07T23:37:06.546Z,44.40
2023-01-07T23:42:07.876Z,30.90
2023-01-07T23:47:09.171Z,28.40
2023-01-07T23:52:10.979Z,33.00
2023-01-07T23:57:12.249Z,35.80
